createdAt,value
2017-04-11T00:00:52.624Z,1019.62
2017-04-11T00:02:03.820Z,1019.59
2017-04-11T00:03:14.819Z,1019.59
2017-04-11T00:04:25.830Z,1019.57
2017-04-11T00:05:36.835Z,1019.59
2017-04-11T00:06:47.839Z,1019.56
2017-04-11T00:07:59.037Z,1019.6
2017-04-11T00:09:10.046Z,1019.53
2017-04-11T00:10:21.054Z,1019.53
2017-04-11T00:11:32.148Z,1019.56
2017-04-11T00:12:43.140Z,1019.56
2017-04-11T00:13:54.136Z,1019.53
2017-04-11T00:15:05.536Z,1019.5
2017-04-11T00:16:16.531Z,1019.51
2017-04-11T00:17:27.538Z,1019.55
2017-04-11T00:18:38.534Z,1019.53
2017-04-11T00:19:49.735Z,1019.54
2017-04-11T00:21:00.721Z,1019.54
2017-04-11T00:22:11.918Z,1019.58
2017-04-11T00:23:22.910Z,1019.53
2017-04-11T00:24:34.107Z,1019.51
2017-04-11T00:25:45.499Z,1019.54
2017-04-11T00:26:56.497Z,1019.5
2017-04-11T00:28:07.493Z,1019.53
2017-04-11T00:29:18.889Z,1019.51
2017-04-11T00:30:30.086Z,1019.48
2017-04-11T00:31:41.082Z,1019.48
2017-04-11T00:32:52.081Z,1019.45
2017-04-11T00:34:03.088Z,1019.45
2017-04-11T00:35:14.296Z,1019.42
2017-04-11T00:36:25.495Z,1019.46
2017-04-11T00:37:36.488Z,1019.46
2017-04-11T00:38:47.497Z,1019.47
2017-04-11T00:39:58.482Z,1019.49
2017-04-11T00:41:09.482Z,1019.47
2017-04-11T00:42:20.489Z,1019.46
2017-04-11T00:43:31.744Z,1019.43
2017-04-11T00:44:42.754Z,1019.47
2017-04-11T00:45:53.748Z,1019.42
2017-04-11T00:47:04.743Z,1019.45
2017-04-11T00:48:15.983Z,1019.43
2017-04-11T00:49:26.994Z,1019.41
2017-04-11T00:50:38.204Z,1019.42
2017-04-11T00:51:49.199Z,1019.42
2017-04-11T00:53:00.195Z,1019.45
2017-04-11T00:54:11.214Z,1019.42
2017-04-11T00:55:22.625Z,1019.39
2017-04-11T00:56:33.634Z,1019.41
2017-04-11T00:57:44.885Z,1019.38
2017-04-11T00:58:55.885Z,1019.39
2017-04-11T01:00:06.886Z,1019.39
2017-04-11T01:01:17.885Z,1019.36
2017-04-11T01:02:28.876Z,1019.39
2017-04-11T01:03:39.878Z,1019.42
2017-04-11T01:04:51.069Z,1019.37
2017-04-11T01:06:02.066Z,1019.38
2017-04-11T01:07:13.065Z,1019.39
2017-04-11T01:08:24.064Z,1019.39
2017-04-11T01:09:35.058Z,1019.41
2017-04-11T01:10:46.078Z,1019.37
2017-04-11T01:11:57.086Z,1019.36
2017-04-11T01:13:08.113Z,1019.34
2017-04-11T01:14:19.459Z,1019.32
2017-04-11T01:15:30.459Z,1019.36
2017-04-11T01:16:41.466Z,1019.35
2017-04-11T01:17:52.455Z,1019.39
2017-04-11T01:19:03.458Z,1019.37
2017-04-11T01:20:14.458Z,1019.37
2017-04-11T01:21:25.464Z,1019.4
2017-04-11T01:22:36.473Z,1019.4
2017-04-11T01:23:47.474Z,1019.43
2017-04-11T01:24:58.879Z,1019.42
2017-04-11T01:26:09.884Z,1019.43
2017-04-11T01:27:20.889Z,1019.42
2017-04-11T01:28:31.892Z,1019.41
2017-04-11T01:29:42.950Z,1019.39
2017-04-11T01:30:54.004Z,1019.39
2017-04-11T01:32:05.006Z,1019.37
2017-04-11T01:33:16.014Z,1019.39
2017-04-11T01:34:27.005Z,1019.4
2017-04-11T01:35:38.004Z,1019.43
2017-04-11T01:36:49.015Z,1019.4
2017-04-11T01:38:00.209Z,1019.38
2017-04-11T01:39:11.203Z,1019.37
2017-04-11T01:40:22.406Z,1019.39
2017-04-11T01:41:33.393Z,1019.41
2017-04-11T01:42:44.596Z,1019.42
2017-04-11T01:43:55.600Z,1019.41
2017-04-11T01:45:06.593Z,1019.46
2017-04-11T01:46:17.825Z,1019.5
2017-04-11T01:47:28.822Z,1019.49
2017-04-11T01:48:39.820Z,1019.51
2017-04-11T01:49:51.018Z,1019.48
2017-04-11T01:51:02.021Z,1019.5
2017-04-11T01:52:13.224Z,1019.52
2017-04-11T01:53:24.639Z,1019.5
2017-04-11T01:54:35.649Z,1019.52
2017-04-11T01:55:46.650Z,1019.51
2017-04-11T01:56:57.648Z,1019.52
2017-04-11T01:58:08.649Z,1019.56
2017-04-11T01:59:19.657Z,1019.54
2017-04-11T02:00:30.877Z,1019.54
2017-04-11T02:01:41.887Z,1019.52
2017-04-11T02:02:53.092Z,1019.53
2017-04-11T02:04:04.084Z,1019.55
2017-04-11T02:05:15.151Z,1019.57
2017-04-11T02:06:26.357Z,1019.56
2017-04-11T02:07:37.362Z,1019.6
2017-04-11T02:08:48.572Z,1019.62
2017-04-11T02:09:59.789Z,1019.58
2017-04-11T02:11:10.786Z,1019.56
2017-04-11T02:12:21.836Z,1019.57
2017-04-11T02:13:33.044Z,1019.56
2017-04-11T02:14:44.300Z,1019.6
2017-04-11T02:15:55.502Z,1019.55
2017-04-11T02:17:06.495Z,1019.57
2017-04-11T02:18:17.704Z,1019.56
2017-04-11T02:19:28.697Z,1019.56
2017-04-11T02:20:39.892Z,1019.61
2017-04-11T02:21:50.889Z,1019.61
2017-04-11T02:23:01.886Z,1019.57
2017-04-11T02:24:12.909Z,1019.59
2017-04-11T02:25:23.912Z,1019.58
2017-04-11T02:26:34.920Z,1019.54
2017-04-11T02:27:45.919Z,1019.57
2017-04-11T02:28:56.923Z,1019.56
2017-04-11T02:30:07.930Z,1019.52
2017-04-11T02:31:18.982Z,1019.54
2017-04-11T02:32:29.992Z,1019.55
2017-04-11T02:33:41.015Z,1019.52
2017-04-11T02:34:52.221Z,1019.54
2017-04-11T02:36:03.231Z,1019.55
2017-04-11T02:37:14.232Z,1019.53
2017-04-11T02:38:25.233Z,1019.55
2017-04-11T02:39:36.231Z,1019.53
2017-04-11T02:40:47.229Z,1019.58
2017-04-11T02:41:58.222Z,1019.59
2017-04-11T02:43:09.223Z,1019.63
2017-04-11T02:44:20.429Z,1019.62
2017-04-11T02:45:31.431Z,1019.68
2017-04-11T02:46:42.682Z,1019.64
2017-04-11T02:47:53.680Z,1019.64
2017-04-11T02:49:04.693Z,1019.67
2017-04-11T02:50:15.697Z,1019.68
2017-04-11T02:51:26.708Z,1019.67
2017-04-11T02:52:37.713Z,1019.67
2017-04-11T02:53:48.705Z,1019.71
2017-04-11T02:54:59.683Z,1019.7
2017-04-11T02:56:10.879Z,1019.69
2017-04-11T02:57:21.876Z,1019.71
2017-04-11T02:58:32.871Z,1019.73
2017-04-11T02:59:44.073Z,1019.67
2017-04-11T03:00:55.316Z,1019.69
2017-04-11T03:02:06.326Z,1019.67
2017-04-11T03:03:17.530Z,1019.66
2017-04-11T03:04:28.728Z,1019.68
2017-04-11T03:05:39.730Z,1019.69
2017-04-11T03:06:50.763Z,1019.69
2017-04-11T03:08:01.764Z,1019.71
2017-04-11T03:09:12.768Z,1019.75
2017-04-11T03:10:23.982Z,1019.7
2017-04-11T03:11:34.971Z,1019.68
2017-04-11T03:12:45.974Z,1019.71
2017-04-11T03:13:57.023Z,1019.69
2017-04-11T03:15:08.025Z,1019.71
2017-04-11T03:16:19.030Z,1019.72
2017-04-11T03:17:30.081Z,1019.74
2017-04-11T03:18:41.092Z,1019.77
2017-04-11T03:19:52.092Z,1019.72
2017-04-11T03:21:03.100Z,1019.73
2017-04-11T03:22:14.294Z,1019.76
2017-04-11T03:23:25.299Z,1019.75
2017-04-11T03:24:36.307Z,1019.76
2017-04-11T03:25:47.304Z,1019.79
2017-04-11T03:26:58.299Z,1019.81
2017-04-11T03:28:09.503Z,1019.82
2017-04-11T03:29:20.512Z,1019.8
2017-04-11T03:30:31.518Z,1019.79
2017-04-11T03:31:42.744Z,1019.82
2017-04-11T03:32:53.994Z,1019.84
2017-04-11T03:34:05.001Z,1019.82
2017-04-11T03:35:16.002Z,1019.84
2017-04-11T03:36:27.203Z,1019.85
2017-04-11T03:37:38.201Z,1019.88
2017-04-11T03:38:49.213Z,1019.91
2017-04-11T03:40:00.211Z,1019.91
2017-04-11T03:41:11.243Z,1019.92
2017-04-11T03:42:22.235Z,1019.89
2017-04-11T03:43:33.239Z,1019.92
2017-04-11T03:44:44.229Z,1019.94
2017-04-11T03:45:55.224Z,1019.88
2017-04-11T03:47:06.311Z,1019.89
2017-04-11T03:48:17.317Z,1019.93
2017-04-11T03:49:28.318Z,1019.92
2017-04-11T03:50:39.319Z,1019.98
2017-04-11T03:51:50.321Z,1019.97
2017-04-11T03:53:01.325Z,1019.98
2017-04-11T03:54:12.319Z,1019.98
2017-04-11T03:55:23.320Z,1020.01
2017-04-11T03:56:34.319Z,1020.06
2017-04-11T03:57:45.319Z,1020.01
2017-04-11T03:58:56.319Z,1020.01
2017-04-11T04:00:07.321Z,1019.99
2017-04-11T04:01:18.514Z,1020.01
2017-04-11T04:02:29.747Z,1019.98
2017-04-11T04:03:40.750Z,1019.98
2017-04-11T04:04:51.799Z,1020.02
2017-04-11T04:06:03.005Z,1020.01
2017-04-11T04:07:13.999Z,1020.03
2017-04-11T04:08:24.994Z,1020.06
2017-04-11T04:09:35.992Z,1020.12
2017-04-11T04:10:47.188Z,1020.14
2017-04-11T04:11:58.189Z,1020.15
2017-04-11T04:13:09.402Z,1020.18
2017-04-11T04:14:20.389Z,1020.19
2017-04-11T04:15:31.402Z,1020.19
2017-04-11T04:16:42.405Z,1020.2
2017-04-11T04:17:53.458Z,1020.26
2017-04-11T04:19:04.460Z,1020.24
2017-04-11T04:20:15.464Z,1020.24
2017-04-11T04:21:26.656Z,1020.23
2017-04-11T04:22:37.641Z,1020.25
2017-04-11T04:23:48.631Z,1020.25
2017-04-11T04:24:59.637Z,1020.22
2017-04-11T04:26:10.634Z,1020.26
2017-04-11T04:27:21.632Z,1020.25
2017-04-11T04:28:32.876Z,1020.3
2017-04-11T04:29:43.881Z,1020.33
2017-04-11T04:30:54.878Z,1020.29
2017-04-11T04:32:05.885Z,1020.33
2017-04-11T04:33:16.914Z,1020.34
2017-04-11T04:34:27.913Z,1020.4
2017-04-11T04:35:38.933Z,1020.41
2017-04-11T04:36:49.923Z,1020.4
2017-04-11T04:38:00.933Z,1020.38
2017-04-11T04:39:12.130Z,1020.35
2017-04-11T04:40:23.127Z,1020.36
2017-04-11T04:41:34.128Z,1020.35
2017-04-11T04:42:45.332Z,1020.34
2017-04-11T04:43:56.324Z,1020.33
2017-04-11T04:45:07.367Z,1020.39
2017-04-11T04:46:18.565Z,1020.33
2017-04-11T04:47:29.766Z,1020.34
2017-04-11T04:48:40.755Z,1020.35
2017-04-11T04:49:51.750Z,1020.36
2017-04-11T04:51:02.750Z,1020.38
2017-04-11T04:52:13.757Z,1020.42
2017-04-11T04:53:24.756Z,1020.39
2017-04-11T04:54:35.809Z,1020.38
2017-04-11T04:55:47.011Z,1020.43
2017-04-11T04:56:58.001Z,1020.43
2017-04-11T04:58:09.002Z,1020.42
2017-04-11T04:59:20.405Z,1020.44
2017-04-11T05:00:31.608Z,1020.48
2017-04-11T05:01:42.803Z,1020.49
2017-04-11T05:02:53.790Z,1020.52
2017-04-11T05:04:04.787Z,1020.5
2017-04-11T05:05:15.837Z,1020.48
2017-04-11T05:06:26.833Z,1020.51
2017-04-11T05:07:37.837Z,1020.51
2017-04-11T05:08:49.058Z,1020.48
2017-04-11T05:10:00.265Z,1020.52
2017-04-11T05:11:11.267Z,1020.56
2017-04-11T05:12:22.270Z,1020.55
2017-04-11T05:13:33.266Z,1020.55
2017-04-11T05:14:44.279Z,1020.58
2017-04-11T05:15:55.275Z,1020.61
2017-04-11T05:17:06.483Z,1020.58
2017-04-11T05:18:17.476Z,1020.56
2017-04-11T05:19:28.472Z,1020.53
2017-04-11T05:20:39.487Z,1020.55
2017-04-11T05:21:50.696Z,1020.51
2017-04-11T05:23:01.695Z,1020.57
2017-04-11T05:24:12.903Z,1020.56
2017-04-11T05:25:23.909Z,1020.62
2017-04-11T05:26:35.148Z,1020.69
2017-04-11T05:27:46.162Z,1020.7
2017-04-11T05:28:57.164Z,1020.71
2017-04-11T05:30:08.363Z,1020.77
2017-04-11T05:31:19.368Z,1020.76
2017-04-11T05:32:30.375Z,1020.71
2017-04-11T05:33:41.384Z,1020.73
2017-04-11T05:34:52.582Z,1020.77
2017-04-11T05:36:03.571Z,1020.77
2017-04-11T05:37:14.580Z,1020.76
2017-04-11T05:38:25.823Z,1020.78
2017-04-11T05:39:36.824Z,1020.83
2017-04-11T05:40:47.831Z,1020.82
2017-04-11T05:41:58.821Z,1020.81
2017-04-11T05:43:09.817Z,1020.82
2017-04-11T05:44:20.834Z,1020.88
2017-04-11T05:45:31.827Z,1020.92
2017-04-11T05:46:42.831Z,1020.95
2017-04-11T05:47:53.871Z,1020.95
2017-04-11T05:49:04.877Z,1021.04
2017-04-11T05:50:16.073Z,1021
2017-04-11T05:51:27.127Z,1021.03
2017-04-11T05:52:38.138Z,1020.99
2017-04-11T05:53:49.139Z,1021
2017-04-11T05:55:00.354Z,1021.03
2017-04-11T05:56:11.407Z,1021.01
2017-04-11T05:57:22.403Z,1021.03
2017-04-11T05:58:33.413Z,1021.05
2017-04-11T05:59:44.425Z,1021.05
2017-04-11T06:00:55.408Z,1021.09
2017-04-11T06:02:06.607Z,1021.07
2017-04-11T06:03:17.811Z,1021.08
2017-04-11T06:04:28.815Z,1021.08
2017-04-11T06:05:39.810Z,1021.06
2017-04-11T06:06:51.011Z,1021.08
2017-04-11T06:08:02.268Z,1021.05
2017-04-11T06:09:13.470Z,1021.09
2017-04-11T06:10:24.492Z,1021.1
2017-04-11T06:11:35.506Z,1021.09
2017-04-11T06:12:46.509Z,1021.12
2017-04-11T06:13:57.508Z,1021.12
2017-04-11T06:15:08.705Z,1021.15
2017-04-11T06:16:19.707Z,1021.17
2017-04-11T06:17:30.719Z,1021.18
2017-04-11T06:18:41.719Z,1021.2
2017-04-11T06:19:52.706Z,1021.18
2017-04-11T06:21:03.915Z,1021.21
2017-04-11T06:22:14.918Z,1021.24
2017-04-11T06:23:26.183Z,1021.26
2017-04-11T06:24:37.382Z,1021.3
2017-04-11T06:25:48.374Z,1021.3
2017-04-11T06:26:59.367Z,1021.29
2017-04-11T06:28:10.371Z,1021.32
2017-04-11T06:29:21.378Z,1021.34
2017-04-11T06:30:32.575Z,1021.36
2017-04-11T06:31:43.573Z,1021.39
2017-04-11T06:32:54.831Z,1021.37
2017-04-11T06:34:05.831Z,1021.4
2017-04-11T06:35:17.024Z,1021.38
2017-04-11T06:36:28.221Z,1021.37
2017-04-11T06:37:39.232Z,1021.35
2017-04-11T06:38:50.285Z,1021.34
2017-04-11T06:40:01.286Z,1021.36
2017-04-11T06:41:12.492Z,1021.38
2017-04-11T06:42:23.494Z,1021.35
2017-04-11T06:43:34.687Z,1021.34
2017-04-11T06:44:45.701Z,1021.37
2017-04-11T06:45:56.901Z,1021.3
2017-04-11T06:47:07.911Z,1021.32
2017-04-11T06:48:18.923Z,1021.34
2017-04-11T06:49:29.991Z,1021.31
2017-04-11T06:50:40.993Z,1021.3
2017-04-11T06:51:51.980Z,1021.3
2017-04-11T06:53:02.990Z,1021.29
2017-04-11T06:54:14.006Z,1021.24
2017-04-11T06:55:25.417Z,1021.22
2017-04-11T06:56:36.414Z,1021.24
2017-04-11T06:57:47.415Z,1021.24
2017-04-11T06:58:58.408Z,1021.21
2017-04-11T07:00:09.412Z,1021.24
2017-04-11T07:01:20.404Z,1021.23
2017-04-11T07:02:31.414Z,1021.2
2017-04-11T07:03:42.424Z,1021.21
2017-04-11T07:04:53.677Z,1021.19
2017-04-11T07:06:04.878Z,1021.19
2017-04-11T07:07:16.068Z,1021.23
2017-04-11T07:08:27.083Z,1021.19
2017-04-11T07:09:38.119Z,1021.16
2017-04-11T07:10:49.123Z,1021.13
2017-04-11T07:12:00.130Z,1021.16
2017-04-11T07:13:11.145Z,1021.17
2017-04-11T07:14:22.182Z,1021.2
2017-04-11T07:15:33.177Z,1021.14
2017-04-11T07:16:44.175Z,1021.12
2017-04-11T07:17:55.172Z,1021.13
2017-04-11T07:19:06.183Z,1021.1
2017-04-11T07:20:17.179Z,1021.05
2017-04-11T07:21:28.378Z,1021.06
2017-04-11T07:22:39.385Z,1021.1
2017-04-11T07:23:50.389Z,1021.05
2017-04-11T07:25:01.394Z,1021.04
2017-04-11T07:26:12.387Z,1021.09
2017-04-11T07:27:23.408Z,1021.11
2017-04-11T07:28:34.621Z,1021.11
2017-04-11T07:29:45.646Z,1021.12
2017-04-11T07:30:57.103Z,1021.12
2017-04-11T07:32:08.104Z,1021.13
2017-04-11T07:33:19.099Z,1021.11
2017-04-11T07:34:30.127Z,1021.07
2017-04-11T07:35:41.135Z,1021.15
2017-04-11T07:36:52.139Z,1021.15
2017-04-11T07:38:03.131Z,1021.19
2017-04-11T07:39:14.122Z,1021.21
2017-04-11T07:40:25.341Z,1021.24
2017-04-11T07:41:36.335Z,1021.26
2017-04-11T07:42:47.328Z,1021.3
2017-04-11T07:43:58.313Z,1021.27
2017-04-11T07:45:09.533Z,1021.26
2017-04-11T07:46:20.583Z,1021.29
2017-04-11T07:47:31.783Z,1021.3
2017-04-11T07:48:42.785Z,1021.31
2017-04-11T07:49:53.797Z,1021.32
2017-04-11T07:51:04.839Z,1021.39
2017-04-11T07:52:15.859Z,1021.37
2017-04-11T07:53:27.052Z,1021.38
2017-04-11T07:54:38.050Z,1021.44
2017-04-11T07:55:49.302Z,1021.44
2017-04-11T07:57:00.299Z,1021.47
2017-04-11T07:58:11.296Z,1021.47
2017-04-11T07:59:22.307Z,1021.43
2017-04-11T08:00:33.305Z,1021.4
2017-04-11T08:01:44.319Z,1021.44
2017-04-11T08:02:55.316Z,1021.45
2017-04-11T08:04:06.312Z,1021.43
2017-04-11T08:05:17.318Z,1021.45
2017-04-11T08:06:28.527Z,1021.45
2017-04-11T08:07:39.542Z,1021.45
2017-04-11T08:08:50.749Z,1021.46
2017-04-11T08:10:01.749Z,1021.47
2017-04-11T08:11:12.755Z,1021.46
2017-04-11T08:12:23.746Z,1021.4
2017-04-11T08:13:34.760Z,1021.44
2017-04-11T08:14:45.760Z,1021.44
2017-04-11T08:15:56.767Z,1021.49
2017-04-11T08:17:08.022Z,1021.49
2017-04-11T08:18:19.021Z,1021.5
2017-04-11T08:19:30.237Z,1021.49
2017-04-11T08:20:41.243Z,1021.52
2017-04-11T08:21:52.245Z,1021.53
2017-04-11T08:23:03.244Z,1021.54
2017-04-11T08:24:14.461Z,1021.56
2017-04-11T08:25:25.465Z,1021.53
2017-04-11T08:26:36.476Z,1021.58
2017-04-11T08:27:47.728Z,1021.6
2017-04-11T08:28:58.774Z,1021.56
2017-04-11T08:30:09.788Z,1021.64
2017-04-11T08:31:20.999Z,1021.64
2017-04-11T08:32:32.033Z,1021.62
2017-04-11T08:33:43.041Z,1021.64
2017-04-11T08:34:54.250Z,1021.64
2017-04-11T08:36:05.257Z,1021.64
2017-04-11T08:37:16.513Z,1021.63
2017-04-11T08:38:27.523Z,1021.56
2017-04-11T08:39:38.558Z,1021.58
2017-04-11T08:40:49.555Z,1021.57
2017-04-11T08:42:00.557Z,1021.6
2017-04-11T08:43:11.555Z,1021.6
2017-04-11T08:44:22.587Z,1021.58
2017-04-11T08:45:33.608Z,1021.65
2017-04-11T08:46:44.617Z,1021.62
2017-04-11T08:47:56.024Z,1021.62
2017-04-11T08:49:07.051Z,1021.63
2017-04-11T08:50:18.060Z,1021.69
2017-04-11T08:51:29.067Z,1021.66
2017-04-11T08:52:40.074Z,1021.69
2017-04-11T08:53:51.074Z,1021.64
2017-04-11T08:55:02.074Z,1021.73
2017-04-11T08:56:13.072Z,1021.76
2017-04-11T08:57:24.074Z,1021.75
2017-04-11T08:58:35.084Z,1021.76
2017-04-11T08:59:46.091Z,1021.77
2017-04-11T09:00:57.100Z,1021.78
2017-04-11T09:02:08.326Z,1021.75
2017-04-11T09:03:19.374Z,1021.78
2017-04-11T09:04:30.365Z,1021.83
2017-04-11T09:05:41.370Z,1021.82
2017-04-11T09:06:52.376Z,1021.8
2017-04-11T09:08:03.370Z,1021.84
2017-04-11T09:09:14.373Z,1021.98
2017-04-11T09:10:25.380Z,1022.38
2017-04-11T09:11:36.390Z,1022.46
2017-04-11T09:12:47.404Z,1022.77
2017-04-11T09:13:58.452Z,1022.56
2017-04-11T09:15:09.455Z,1022.62
2017-04-11T09:16:20.688Z,1022.46
2017-04-11T09:17:31.682Z,1022.49
2017-04-11T09:18:42.701Z,1022.13
2017-04-11T09:19:53.715Z,1022.21
2017-04-11T09:21:04.718Z,1022.1
2017-04-11T09:22:15.720Z,1022.11
2017-04-11T09:23:26.747Z,1022.15
2017-04-11T09:24:37.809Z,1022.68
2017-04-11T09:25:48.806Z,1022.2
2017-04-11T09:27:00.029Z,1022.27
2017-04-11T09:28:11.251Z,1022.72
2017-04-11T09:29:22.456Z,1022.54
2017-04-11T09:30:33.458Z,1022.42
2017-04-11T09:31:44.468Z,1022.31
2017-04-11T09:32:55.677Z,1022.3
2017-04-11T09:34:06.691Z,1026.61
2017-04-11T09:35:17.742Z,1022.57
2017-04-11T09:36:28.749Z,1023.39
2017-04-11T09:37:39.761Z,1024.6
2017-04-11T09:38:50.773Z,1030.88
2017-04-11T09:40:01.782Z,1023.53
2017-04-11T09:41:13.252Z,1031.9
2017-04-11T09:42:24.266Z,1022.68
2017-04-11T09:43:35.274Z,1029.95
2017-04-11T09:44:46.278Z,1030.25
2017-04-11T09:45:57.283Z,1029.92
2017-04-11T09:47:08.300Z,1029.21
2017-04-11T09:48:19.325Z,1027.52
2017-04-11T09:49:30.547Z,1027.88
2017-04-11T09:50:41.820Z,1028.49
2017-04-11T09:51:52.839Z,1028.32
2017-04-11T09:53:03.862Z,1027.55
2017-04-11T09:54:14.869Z,1026.77
2017-04-11T09:55:25.886Z,1026.61
2017-04-11T09:56:36.893Z,1025.75
2017-04-11T09:57:48.119Z,1024.93
2017-04-11T09:58:59.146Z,1024.16
2017-04-11T10:00:10.569Z,1024
2017-04-11T10:01:21.825Z,1023.07
2017-04-11T10:02:32.837Z,1022.83
2017-04-11T10:03:43.861Z,1023.43
2017-04-11T10:04:54.869Z,1023.41
2017-04-11T10:06:05.889Z,1023.33
2017-04-11T10:07:16.918Z,1023.09
2017-04-11T10:08:27.940Z,1022.23
2017-04-11T10:09:38.959Z,1022.22
2017-04-11T10:10:49.964Z,1022.19
2017-04-11T10:12:01.184Z,1022.58
2017-04-11T10:13:12.208Z,1022.22
2017-04-11T10:14:23.256Z,1022.23
2017-04-11T10:15:34.292Z,1022.55
2017-04-11T10:16:45.318Z,1022.03
2017-04-11T10:17:56.331Z,1022.27
2017-04-11T10:19:07.351Z,1022.07
2017-04-11T10:20:18.376Z,1022.17
2017-04-11T10:21:29.388Z,1022.02
2017-04-11T10:22:40.414Z,1021.95
2017-04-11T10:23:51.481Z,1021.93
2017-04-11T10:25:02.511Z,1022
2017-04-11T10:26:13.519Z,1021.99
2017-04-11T10:27:24.541Z,1021.95
2017-04-11T10:28:35.548Z,1022.4
2017-04-11T10:29:46.570Z,1021.87
2017-04-11T10:30:57.591Z,1021.78
2017-04-11T10:32:08.599Z,1022.03
2017-04-11T10:33:19.871Z,1021.79
2017-04-11T10:34:31.091Z,1021.76
2017-04-11T10:35:42.120Z,1021.83
2017-04-11T10:36:53.337Z,1021.94
2017-04-11T10:38:04.557Z,1022.09
2017-04-11T10:39:15.580Z,1021.83
2017-04-11T10:40:26.796Z,1021.71
2017-04-11T10:41:37.811Z,1021.67
2017-04-11T10:42:48.820Z,1021.6
2017-04-11T10:44:00.082Z,1021.66
2017-04-11T10:45:11.094Z,1021.57
2017-04-11T10:46:22.112Z,1021.66
2017-04-11T10:47:33.347Z,1021.72
2017-04-11T10:48:44.574Z,1021.74
2017-04-11T10:49:56.047Z,1021.77
2017-04-11T10:51:07.064Z,1021.68
2017-04-11T10:52:18.083Z,1021.69
2017-04-11T10:53:29.284Z,1021.7
2017-04-11T10:54:40.289Z,1021.77
2017-04-11T10:55:51.509Z,1021.78
2017-04-11T10:57:02.509Z,1021.8
2017-04-11T10:58:13.716Z,1021.71
2017-04-11T10:59:24.728Z,1021.73
2017-04-11T11:00:35.738Z,1021.74
2017-04-11T11:01:47.009Z,1021.76
2017-04-11T11:02:58.015Z,1021.75
2017-04-11T11:04:09.014Z,1021.83
2017-04-11T11:05:20.031Z,1021.82
2017-04-11T11:06:31.243Z,1021.83
2017-04-11T11:07:42.447Z,1021.84
2017-04-11T11:08:53.453Z,1021.93
2017-04-11T11:10:04.457Z,1021.89
2017-04-11T11:11:15.716Z,1021.74
2017-04-11T11:12:26.718Z,1021.7
2017-04-11T11:13:37.734Z,1021.61
2017-04-11T11:14:48.751Z,1021.68
2017-04-11T11:15:59.754Z,1021.59
2017-04-11T11:17:10.765Z,1021.58
2017-04-11T11:18:21.772Z,1021.49
2017-04-11T11:19:32.789Z,1021.54
2017-04-11T11:20:43.788Z,1021.52
2017-04-11T11:21:54.842Z,1021.46
2017-04-11T11:23:06.054Z,1021.48
2017-04-11T11:24:17.066Z,1021.51
2017-04-11T11:25:28.066Z,1021.5
2017-04-11T11:26:39.070Z,1021.6
2017-04-11T11:27:50.271Z,1021.51
2017-04-11T11:29:01.278Z,1021.55
2017-04-11T11:30:12.282Z,1021.57
2017-04-11T11:31:23.286Z,1021.52
2017-04-11T11:32:34.296Z,1021.4
2017-04-11T11:33:45.313Z,1021.41
2017-04-11T11:34:56.531Z,1021.39
2017-04-11T11:36:07.537Z,1021.35
2017-04-11T11:37:18.957Z,1021.31
2017-04-11T11:38:29.971Z,1021.21
2017-04-11T11:39:40.972Z,1021.19
2017-04-11T11:40:51.987Z,1021.29
2017-04-11T11:42:02.994Z,1021.23
2017-04-11T11:43:14.007Z,1021.4
2017-04-11T11:44:25.063Z,1021.53
2017-04-11T11:45:36.280Z,1021.38
2017-04-11T11:46:47.514Z,1021.37
2017-04-11T11:47:58.525Z,1021.27
2017-04-11T11:49:09.534Z,1021.41
2017-04-11T11:50:20.747Z,1021.36
2017-04-11T11:51:31.751Z,1021.28
2017-04-11T11:52:42.760Z,1021.43
2017-04-11T11:53:54.029Z,1021.46
2017-04-11T11:55:05.049Z,1021.43
2017-04-11T11:56:16.053Z,1021.24
2017-04-11T11:57:27.056Z,1021.24
2017-04-11T11:58:38.262Z,1021.25
2017-04-11T11:59:49.266Z,1021.27
2017-04-11T12:01:00.475Z,1021.22
2017-04-11T12:02:11.490Z,1021.25
2017-04-11T12:03:22.519Z,1021.22
2017-04-11T12:04:33.788Z,1021.22
2017-04-11T12:05:44.808Z,1021.17
2017-04-11T12:06:56.008Z,1021.21
2017-04-11T12:08:07.031Z,1021.16
2017-04-11T12:09:18.061Z,1021.1
2017-04-11T12:10:29.075Z,1021.07
2017-04-11T12:11:40.082Z,1021.11
2017-04-11T12:12:51.303Z,1021.1
2017-04-11T12:14:02.328Z,1021.04
2017-04-11T12:15:13.344Z,1021.04
2017-04-11T12:16:24.365Z,1021.18
2017-04-11T12:17:35.366Z,1021.17
2017-04-11T12:18:46.374Z,1021.07
2017-04-11T12:19:57.581Z,1021.09
2017-04-11T12:21:08.633Z,1021
2017-04-11T12:22:19.695Z,1020.96
2017-04-11T12:23:30.711Z,1020.96
2017-04-11T12:24:41.933Z,1020.97
2017-04-11T12:25:52.952Z,1020.93
2017-04-11T12:27:03.966Z,1020.8
2017-04-11T12:28:14.970Z,1020.81
2017-04-11T12:29:25.980Z,1020.84
2017-04-11T12:30:37.236Z,1020.78
2017-04-11T12:31:48.245Z,1020.73
2017-04-11T12:32:59.270Z,1020.72
2017-04-11T12:34:10.287Z,1020.7
2017-04-11T12:35:21.304Z,1020.7
2017-04-11T12:36:32.323Z,1020.62
2017-04-11T12:37:43.319Z,1020.62
2017-04-11T12:38:54.347Z,1020.63
2017-04-11T12:40:05.787Z,1020.64
2017-04-11T12:41:16.993Z,1020.68
2017-04-11T12:42:27.996Z,1020.62
2017-04-11T12:43:39.002Z,1020.66
2017-04-11T12:44:50.018Z,1020.67
2017-04-11T12:46:01.476Z,1020.64
2017-04-11T12:47:12.485Z,1020.66
2017-04-11T12:48:23.500Z,1020.57
2017-04-11T12:49:34.508Z,1020.58
2017-04-11T12:50:45.517Z,1020.51
2017-04-11T12:51:56.716Z,1020.51
2017-04-11T12:53:07.723Z,1020.51
2017-04-11T12:54:18.739Z,1020.51
2017-04-11T12:55:29.740Z,1020.44
2017-04-11T12:56:40.746Z,1020.49
2017-04-11T12:57:51.753Z,1020.48
2017-04-11T12:59:02.972Z,1020.49
2017-04-11T13:00:13.982Z,1020.5
2017-04-11T13:01:24.991Z,1020.54
2017-04-11T13:02:35.992Z,1020.58
2017-04-11T13:03:47.197Z,1020.6
2017-04-11T13:04:58.202Z,1020.56
2017-04-11T13:06:09.628Z,1020.58
2017-04-11T13:07:20.834Z,1020.57
2017-04-11T13:08:31.833Z,1020.51
2017-04-11T13:09:42.837Z,1020.53
2017-04-11T13:10:54.448Z,1020.5
2017-04-11T13:12:05.457Z,1020.57
2017-04-11T13:13:16.468Z,1020.45
2017-04-11T13:14:27.468Z,1020.5
2017-04-11T13:15:38.474Z,1020.47
2017-04-11T13:16:49.740Z,1020.42
2017-04-11T13:18:00.745Z,1020.41
2017-04-11T13:19:11.757Z,1020.4
2017-04-11T13:20:22.961Z,1020.43
2017-04-11T13:21:34.177Z,1020.44
2017-04-11T13:22:45.173Z,1020.4
2017-04-11T13:23:56.377Z,1020.35
2017-04-11T13:25:07.390Z,1020.35
2017-04-11T13:26:18.408Z,1020.34
2017-04-11T13:27:29.466Z,1020.29
2017-04-11T13:28:40.470Z,1020.31
2017-04-11T13:29:51.686Z,1020.35
2017-04-11T13:31:02.700Z,1020.3
2017-04-11T13:32:13.688Z,1020.34
2017-04-11T13:33:24.699Z,1020.3
2017-04-11T13:34:35.701Z,1020.29
2017-04-11T13:35:46.714Z,1020.27
2017-04-11T13:36:58.117Z,1020.3
2017-04-11T13:38:09.431Z,1020.31
2017-04-11T13:39:20.644Z,1020.29
2017-04-11T13:40:31.676Z,1020.25
2017-04-11T13:41:42.905Z,1020.21
2017-04-11T13:42:53.910Z,1020.19
2017-04-11T13:44:04.923Z,1020.12
2017-04-11T13:45:15.933Z,1020.07
2017-04-11T13:46:26.945Z,1020.09
2017-04-11T13:47:37.945Z,1020.06
2017-04-11T13:48:49.142Z,1019.99
2017-04-11T13:50:00.359Z,1020.01
2017-04-11T13:51:11.371Z,1020.02
2017-04-11T13:52:22.386Z,1020.05
2017-04-11T13:53:33.448Z,1020.07
2017-04-11T13:54:44.445Z,1020.04
2017-04-11T13:55:55.458Z,1020.01
2017-04-11T13:57:06.454Z,1020.03
2017-04-11T13:58:17.456Z,1019.97
2017-04-11T13:59:28.461Z,1019.91
2017-04-11T14:00:39.678Z,1019.95
2017-04-11T14:01:50.688Z,1019.98
2017-04-11T14:03:01.744Z,1019.98
2017-04-11T14:04:12.762Z,1019.96
2017-04-11T14:05:23.809Z,1020.02
2017-04-11T14:06:35.015Z,1019.94
2017-04-11T14:07:46.022Z,1019.95
2017-04-11T14:08:57.235Z,1019.93
2017-04-11T14:10:08.239Z,1019.91
2017-04-11T14:11:19.255Z,1019.9
2017-04-11T14:12:30.463Z,1019.85
2017-04-11T14:13:41.469Z,1019.83
2017-04-11T14:14:52.677Z,1019.79
2017-04-11T14:16:03.693Z,1019.84
2017-04-11T14:17:15.107Z,1019.87
2017-04-11T14:18:26.102Z,1019.82
2017-04-11T14:19:37.367Z,1019.82
2017-04-11T14:20:48.376Z,1019.82
2017-04-11T14:21:59.385Z,1019.81
2017-04-11T14:23:10.401Z,1019.83